Aérodrome :
LOGIN :

S'inscrire | Disclaimer

   EN    FR    IT 

 










Légende :    VFR   VFR Marginal   IFR   IFR Intensif   IFR Très Intensif
Visi : 
Plafond : 
>= 8 km
>= 3000ft
5 à 8 km
1000 à 3000 ft
1500m à 5 km
500 à 1000 ft
800 à 1500m
200 à 500 ft
< 800m
< 200 ft
Symboles :   Orages  Brouillard  Fortes neiges  Fortes précipitations  Vent > 20 kt
SIGMETs :   Divers  Orages  Givrage  Turbulence  Onde Orograph.  Cendres Volcan.






- Altitude de l'aérodrome : 909 ft
- Code IATA : KSF


EDVK - Kassel Calden

DERNIER METAR :
  • 280720Z 29014KT 9999 BKN027 10/04 Q1019

METARs EXPIRÉS :
  • 280650Z 29015KT 9999 BKN025 10/05 Q1019
  • 280620Z 29014KT 9999 SCT024 SCT048 09/05 Q1019
  • 280550Z 29016KT 9999 SCT020 SCT039 09/05 Q1018
  • 280520Z 29014KT 9999 BKN024 10/06 Q1018

TAF TAF EDVK
Valide du 28 à 06h jusqu'au 28 à 15h UTC


280500Z 2806/2815 32010KT 9999 BKN030
BECMG 2806/2808 32015G25KT
TEMPO 2806/2808 SHRA BKN030CB
TEMPO 2810/2815 34020G30KT SHRA BKN040CB



MET'MAP, la Météo Aéronautique d'un coup d'oeil ! - Copyright ORBIFLY Décembre 2007 - Disclaimer

ORBIFLY MET'MAP TEAM :

Programmation & Développement : Alexandra Zaïnal
Sur une idée originale de : Baudouin d'Aumeries
Soutien technique & logistique : Manuel Goepfert
Assistance : Marc-Olivier Méhu

Contact : metmap@orbifly.com




SOURCES & CREDITS :

   NOAA